AirNav   Bose Proflight Series 2 Wireless Aviation Headset
 
 972 users online  

26PN Leeds & Northrup Co Heliport
North Wales, Pennsylvania, USA

GOING TO NORTH WALES?


FAA INFORMATION EFFECTIVE 07 NOVEMBER 2019

Location

FAA Identifier: 26PN
Lat/Long: 40-13-00.3850N 075-16-43.6330W
40-13.006417N 075-16.727217W
40.2167736,-75.2787869
(estimated)
Elevation: 346 ft. / 105 m (estimated)
Variation: 11W (1985)
From city: 1 mile NW of NORTH WALES, PA
Time zone: UTC -5 (UTC -4 during Daylight Saving Time)
Zip code: 19454

Heliport Operations

Heliport use: Private use. Permission required prior to landing
Activation date: 05/1979
Control tower: no
ARTCC: NEW YORK CENTER
FSS: WILLIAMSPORT FLIGHT SERVICE STATION
Attendance: UNATNDD
Wind indicator: yes
Segmented circle: no
Lights: ACTVT PERIMETER LGTS - 121.7, 5 CLICKS.

Heliport Communications

WX AWOS-3 at LOM (5 nm S): 118.925 (215-646-1068)
WX ASOS at DYL (10 nm NE): 118.875 (215-345-0392)
WX AWOS-3 at CKZ (10 nm N): 126.325 (215-257-7291)
WX ASOS at PTW (13 nm W): 119.425 (610-495-0823)
WX AWOS-3 at UKT (14 nm N): 119.475 (215-538-7610)
WX ASOS at PNE (15 nm SE): PHONE 215-677-0146
WX AWOS-3T at OQN (19 nm SW): 121.4 ((610) 692-6190)

Nearby radio navigation aids

VOR radial/distance  VOR name  Freq  Var
PTWr100/12.9POTTSTOWN VORTAC116.5009W
ARDr273/17.1YARDLEY VOR/DME108.2010W
MXEr054/25.4MODENA VORTAC113.2009W
ETXr149/28.6EAST TEXAS VOR/DME110.2009W
FJCr175/31.6ALLENTOWN VORTAC117.5010W
SBJr238/32.9SOLBERG VOR/DME112.9010W
GXUr304/33.7MC GUIRE VORTAC110.6012W
OODr012/34.9WOODSTOWN VORTAC112.8010W
DQOr035/35.7DUPONT VORTAC114.0010W
RBVr281/35.9ROBBINSVILLE VORTAC113.8010W

 
NDB name  Hdg/Dist  Freq  Var  ID
AMBLER015/5.527512WING .. -. --.

Heliport Services

Runway Information

Helipad H1

Dimensions: 40 x 40 ft. / 12 x 12 m
Surface: concrete, in fair condition
Runway edge lights: PERI
Latitude: 40-13.006417N
Longitude: 075-16.727217W
Elevation: 346.0 ft.
Traffic pattern: leftleft
Markings: none, in fair condition

Heliport Ownership and Management from official FAA records

Ownership: Privately-owned
Owner: LEEDS & NORTHRUP
351 SUMNEYTOWN PIKE
NORTH WALES, PA 19454
Phone 215-699-2000
Manager: D. HURCHALLA
351 SUMNEYTOWN PIKE
NORTH WALES, PA 19454
Phone 215-699-2000

Additional Remarks

FOR CD CTC PHILADELPHIA APCH AT 800-354-9884.

Instrument Procedures

There are no published instrument procedures at 26PN.

Some nearby airports with instrument procedures:

KLOM - Wings Field Airport (5 nm S)
N10 - Perkiomen Valley Airport (7 nm W)
KDYL - Doylestown Airport (10 nm NE)
KCKZ - Pennridge Airport (10 nm N)
KPTW - Heritage Field Airport (13 nm W)
KUKT - Quakertown Airport (14 nm N)
KPNE - Northeast Philadelphia Airport (15 nm SE)
N47 - Pottstown Municipal Airport (18 nm W)
KOQN - Brandywine Regional Airport (19 nm SW)
 
Loc | Ops | Rwys | IFR | FBO | Links
Com | Nav | Svcs | Stats | Notes
Area around 26PN (Leeds & Northrup Co Heliport)
 
Road maps at: MapQuest Bing Google
 
Aerial photo
No photo
 
Sectional chart

 
Airport distance calculator
Flying to Leeds & Northrup Co Heliport? Find the distance to fly.

From to 26PN

Sunrise and sunset
Times for 20-Nov-2019
 Local
(UTC-5)
 Zulu
(UTC)
Morning civil twilight06:2411:24
Sunrise06:5411:54
Sunset16:4021:40
Evening civil twilight17:0922:09

Current date and time
Zulu (UTC)  20-Nov-2019 12:29:43
Local (UTC-5)  20-Nov-2019 07:29:43
 
METAR
KLOM 
5nm S 
201215Z AUTO 30004KT 10SM CLR 04/00 A2995 RMK AO2 T00400001
KDYL 
10nm NE 
201154Z AUTO 32003KT 10SM BKN050 04/M01 A2993 RMK AO2 SLP140 T00441006 10044 20028 53015
KCKZ 
10nm N 
201215Z AUTO 31006KT 10SM BKN050 OVC120 03/00 A2995 RMK AO2
KPTW 
12nm W 
201154Z AUTO 30004KT 10SM CLR 04/00 A2996 RMK AO2 SLP145 T00390000 10039 20017 53015 $
KUKT 
14nm N 
201220Z AUTO VRB05KT 10SM OVC050 04/00 A2995 RMK A01
KPNE 
14nm SE 
201154Z 32005KT 10SM BKN120 06/M01 A2996 RMK AO2 SLP145 T00611006 10067 20056 53016
KOQN 
19nm SW 
201215Z AUTO 30004KT 10SM 05/00 A2996 RMK AO2
TAF
KPNE 
14nm SE 
201120Z 2012/2112 33010KT P6SM OVC100 FM201600 33011G19KT P6SM BKN070 FM210100 33009KT P6SM SCT060
NOTAMs
Click for the latest NOTAMs
NOTAMs are issued by the DoD/FAA and will open in a separate window not controlled by AirNav.

 

 
 

Would you like to see your business listed on this page?

 If your business provides an interesting product or service to pilots, flight crews, aircraft, or users of the Leeds & Northrup Co Heliport, you should consider listing it here.  To start the listing process, click on the button below
 
Add a business
 

Other Pages about Leeds & Northrup Co Heliport

Update a link
 
Copyright © AirNav, LLC. All rights reserved. Privacy Policy  Contact